Flight Track Log - Related Links

Times and Time Zones

All times are in EDT time to prevent confusion due to time zone crossing. See the AAL2345 flight status page for this flight to view local times or setup timezone preferences in your user account.

Time Position Orientation Groundspeed Altitude Reporting Facility
EDT Latitude Longitude Course Direction KTS MPH feet Rate Location/Type
Tue 06:51:48 PM 41.9833 -87.8500 194° South 164 189 2,200  Level Chicago TRACON
Tue 06:52:48 PM 41.9833 -87.7833 90° East 228 262 3,900 1,400 Climbing Chicago TRACON
Tue 06:53:48 PM 41.9167 -87.7667 169° South 264 304 5,000 516 Climbing Chicago TRACON
Tue 06:54:00 PM 41.7566 -88.1729 201° Southwest  Level Estimated
Tue 06:54:56 PM 41.8419 -87.7600 176° South 253 291 5,000  Level Chicago Center
Tue 06:55:00 PM 41.6814 -88.2613 197° South  Level Estimated
Tue 06:55:58 PM 41.7636 -87.8078 204° Southwest 274 315 7,900  Level Chicago Center
Tue 06:56:00 PM 41.5867 -88.2187 161° South  Level FlightAware Approximate
Tue 06:57:00 PM 41.5087 -88.3114 194° South  Level Estimated
Tue 06:57:00 PM 41.7025 -87.8656 215° Southwest 273 314 10,900  Level Chicago Center
Tue 06:58:02 PM 41.6403 -87.9275 217° Southwest 277 319 13,600 2,565 Climbing Chicago Center
Tue 06:59:04 PM 41.5825 -87.9922 220° Southwest 276 318 16,200 2,226 Climbing Chicago Center
Tue 07:00:06 PM 41.5083 -88.0703 218° Southwest 285 328 18,200 1,839 Climbing Chicago Center
Tue 07:01:08 PM 41.4436 -88.1378 218° Southwest 304 350 20,000 1,536 Climbing Chicago Center
Tue 07:02:11 PM 41.3692 -88.1983 211° Southwest 333 383 21,400 1,056 Climbing Chicago Center
Tue 07:03:13 PM 41.2769 -88.2383 198° South 354 407 22,200 823 Climbing Chicago Center
Tue 07:04:15 PM 41.1533 -88.2939 199° South 391 450 23,100 1,065 Climbing Chicago Center
Tue 07:05:17 PM 41.0411 -88.3456 199° South 425 489 24,400 1,403 Climbing Chicago Center
Tue 07:06:19 PM 40.9267 -88.3953 198° South 435 501 26,000 1,548 Climbing Chicago Center
Tue 07:07:21 PM 40.8117 -88.4461 198° South 439 505 27,600 1,645 Climbing Chicago Center
Tue 07:08:23 PM 40.6908 -88.5489 213° Southwest 430 495 29,400 1,548 Climbing Chicago Center
Tue 07:09:25 PM 40.5933 -88.6364 214° Southwest 430 495 30,800 1,306 Climbing Chicago Center
Tue 07:10:27 PM 40.4953 -88.7219 214° Southwest 427 491 32,100 1,065 Climbing Chicago Center
Tue 07:11:29 PM 40.3958 -88.8061 213° Southwest 424 488 33,000 774 Climbing Chicago Center
Tue 07:12:31 PM 40.3014 -88.8903 214° Southwest 415 478 33,700 480 Climbing Chicago Center
Tue 07:13:34 PM 40.2033 -88.9744 213° Southwest 418 481 34,000 144 Climbing Chicago Center
Tue 07:14:36 PM 40.1083 -89.0567 214° Southwest 409 471 34,000  Level Chicago Center
Tue 07:15:26 PM 40.0119 -89.1403 214° Southwest 412 474 34,000  Level Kansas City Center
Tue 07:16:29 PM 39.9194 -89.2192 213° Southwest 403 464 34,000  Level Kansas City Center
Tue 07:17:31 PM 39.8247 -89.3003 213° Southwest 404 465 34,000  Level Kansas City Center
Tue 07:18:33 PM 39.7300 -89.3817 213° Southwest 406 467 34,000  Level Kansas City Center
Tue 07:19:35 PM 39.6375 -89.4594 213° Southwest 405 466 34,000 -145 Level Kansas City Center
Tue 07:20:37 PM 39.5433 -89.5403 214° Southwest 405 466 33,700 -677 Descending Kansas City Center
Tue 07:21:39 PM 39.4303 -89.6356 213° Southwest 405 466 32,600 -823 Descending Kansas City Center
Tue 07:22:41 PM 39.3350 -89.7181 214° Southwest 410 472 32,000 -290 Descending Kansas City Center
Tue 07:23:43 PM 39.2394 -89.7986 213° Southwest 411 473 32,000  Level Kansas City Center
Tue 07:24:45 PM 39.1308 -89.8908 213° Southwest 411 473 32,000  Level Kansas City Center
Tue 07:25:47 PM 39.0353 -89.9706 213° Southwest 412 474 32,000  Level Kansas City Center
Tue 07:26:49 PM 38.9608 -90.0525 221° Southwest 408 470 32,000  Level Kansas City Center
Tue 07:27:51 PM 38.8739 -90.1747 228° Southwest 404 465 32,000  Level Kansas City Center
Tue 07:28:53 PM 38.7953 -90.2808 226° Southwest 406 467 32,000  Level Kansas City Center
Tue 07:29:55 PM 38.7167 -90.3867 226° Southwest 408 470 32,000  Level Kansas City Center
Tue 07:30:57 PM 38.6372 -90.4936 226° Southwest 414 476 32,000  Level Kansas City Center
Tue 07:31:59 PM 38.5425 -90.6217 227° Southwest 418 481 32,000  Level Kansas City Center
Tue 07:33:01 PM 38.4683 -90.7217 227° Southwest 413 475 32,000  Level Kansas City Center
Tue 07:34:03 PM 38.3897 -90.8264 226° Southwest 412 474 32,000  Level Kansas City Center
Tue 07:35:05 PM 38.3106 -90.9339 227° Southwest 416 479 32,000  Level Kansas City Center
Tue 07:36:07 PM 38.2283 -91.0406 226° Southwest 421 484 32,000  Level Kansas City Center
Tue 07:37:09 PM 38.1417 -91.1556 226° Southwest 416 479 32,000  Level Kansas City Center
Tue 07:38:11 PM 38.0622 -91.2631 227° Southwest 415 478 32,000  Level Kansas City Center
Tue 07:39:13 PM 37.9642 -91.3919 226° Southwest 418 481 32,000  Level Kansas City Center
Tue 07:40:15 PM 37.8825 -91.4997 226° Southwest 420 483 32,000  Level Kansas City Center
Tue 07:41:17 PM 37.8014 -91.6067 226° Southwest 419 482 32,000  Level Kansas City Center
Tue 07:42:19 PM 37.7206 -91.7131 226° Southwest 417 480 32,000  Level Kansas City Center
Tue 07:43:21 PM 37.6381 -91.8189 225° Southwest 417 480 32,000 -97 Level Kansas City Center
Tue 07:44:23 PM 37.5578 -91.9253 226° Southwest 416 479 31,800 -532 Descending Kansas City Center
Tue 07:45:25 PM 37.4739 -92.0311 225° Southwest 420 483 30,900 -871 Descending Kansas City Center
Tue 07:46:27 PM 37.3825 -92.1294 221° Southwest 425 489 30,000 -435 Descending Kansas City Center
Tue 07:47:29 PM 37.2731 -92.2517 222° Southwest 433 498 30,000  Level Kansas City Center
Tue 07:48:31 PM 37.1828 -92.3519 222° Southwest 432 497 30,000  Level Kansas City Center
Tue 07:49:33 PM 37.0922 -92.4517 221° Southwest 431 496 30,000  Level Kansas City Center
Tue 07:50:35 PM 37.0014 -92.5503 221° Southwest 430 495 30,000  Level Kansas City Center
Tue 07:51:37 PM 36.9108 -92.6486 221° Southwest 429 494 30,000  Level Kansas City Center
Tue 07:52:39 PM 36.8200 -92.7469 221° Southwest 430 495 30,000  Level Kansas City Center
Tue 07:53:41 PM 36.7283 -92.8444 220° Southwest 430 495 30,000  Level Kansas City Center
Tue 07:54:43 PM 36.6383 -92.9425 221° Southwest 428 493 30,000  Level Kansas City Center
Tue 07:55:44 PM 36.5444 -93.0436 221° Southwest 429 494 30,000  Level Kansas City Center
Tue 07:56:46 PM 36.4544 -93.1408 221° Southwest 430 495 30,000  Level Kansas City Center
Tue 07:57:48 PM 36.3475 -93.2564 221° Southwest 427 491 30,000  Level Kansas City Center
Tue 07:58:32 PM 36.2903 -93.3231 223° Southwest 435 501 30,000  Level Memphis Center
Tue 07:59:32 PM 36.1961 -93.4225 220° Southwest 435 501 30,000  Level Memphis Center
Tue 08:00:32 PM 36.1042 -93.5167 220° Southwest 440 506 30,000  Level Memphis Center
Tue 08:01:32 PM 36.0139 -93.6161 222° Southwest 440 506 30,000  Level Memphis Center
Tue 08:02:32 PM 35.9217 -93.7147 221° Southwest 440 506 30,000  Level Memphis Center
Tue 08:03:32 PM 35.8314 -93.8111 221° Southwest 440 506 30,000  Level Memphis Center
Tue 08:04:32 PM 35.7392 -93.9044 219° Southwest 440 506 30,000  Level Memphis Center
Tue 08:05:32 PM 35.6444 -94.0025 220° Southwest 440 506 30,000  Level Memphis Center
Tue 08:06:32 PM 35.5433 -94.1103 221° Southwest 440 506 30,000  Level Memphis Center
Tue 08:07:32 PM 35.4486 -94.2056 219° Southwest 440 506 30,000  Level Memphis Center
Tue 08:08:32 PM 35.3581 -94.3031 221° Southwest 440 506 30,000  Level Memphis Center
Tue 08:10:16 PM 35.2111 -94.4661 222° Southwest 439 505 30,000  Level Fort Worth Center
Tue 08:11:17 PM 35.1194 -94.5631 221° Southwest 439 505 30,000  Level Fort Worth Center
Tue 08:12:17 PM 35.0300 -94.6650 223° Southwest 445 512 30,000  Level Fort Worth Center
Tue 08:13:17 PM 34.9403 -94.7567 220° Southwest 445 512 30,000  Level Fort Worth Center
Tue 08:14:17 PM 34.8506 -94.8606 224° Southwest 445 512 30,000 -200 Level Fort Worth Center
Tue 08:15:17 PM 34.7586 -94.9569 221° Southwest 445 512 29,600 -700 Descending Fort Worth Center
Tue 08:16:17 PM 34.6667 -95.0556 221° Southwest 445 512 28,600 -958 Descending Fort Worth Center
Tue 08:17:16 PM 34.5461 -95.0789 189° South 432 497 27,700 -1,000 Descending Fort Worth Center
Tue 08:18:17 PM 34.4208 -95.0822 181° South 428 493 26,600 -1,041 Descending Fort Worth Center
Tue 08:19:17 PM 34.3219 -95.1453 208° Southwest 411 473 25,600 -1,008 Descending Fort Worth Center
Tue 08:20:16 PM 34.2486 -95.2503 230° Southwest 405 466 24,600 -800 Descending Fort Worth Center
Tue 08:21:17 PM 34.1753 -95.3550 230° Southwest 405 466 24,000 -298 Descending Fort Worth Center
Tue 08:22:17 PM 34.0997 -95.4597 229° Southwest 411 473 24,000  Level Fort Worth Center
Tue 08:23:17 PM 34.0219 -95.5617 227° Southwest 416 479 24,000  Level Fort Worth Center
Tue 08:24:17 PM 33.9422 -95.6761 230° Southwest 410 472 24,000 -600 Level Fort Worth Center
Tue 08:25:17 PM 33.8683 -95.7750 228° Southwest 410 472 22,800 -1,700 Descending Fort Worth Center
Tue 08:26:17 PM 33.7903 -95.8714 226° Southwest 410 472 20,600 -2,250 Descending Fort Worth Center
Tue 08:27:17 PM 33.7203 -95.9525 224° Southwest 397 457 18,300 -2,450 Descending Fort Worth Center
Tue 08:28:17 PM 33.6358 -96.0464 223° Southwest 384 442 15,700 -2,200 Descending Fort Worth Center
Tue 08:29:17 PM 33.5719 -96.1219 225° Southwest 372 428 13,900 -2,000 Descending Fort Worth Center
Tue 08:30:17 PM 33.4956 -96.2103 224° Southwest 360 414 11,700 -1,450 Descending Fort Worth Center
Tue 08:31:17 PM 33.4358 -96.2783 224° Southwest 343 395 11,000 -350 Descending Fort Worth Center
Tue 08:32:17 PM 33.3758 -96.3586 228° Southwest 317 365 11,000  Level Fort Worth Center
Tue 08:33:17 PM 33.3347 -96.4339 237° Southwest 304 350 11,000 -350 Level Fort Worth Center
Tue 08:34:17 PM 33.2917 -96.5236 240° Southwest 293 337 10,300 -850 Descending Fort Worth Center
Tue 08:35:17 PM 33.2544 -96.6061 242° Southwest 293 337 9,300 -950 Descending Fort Worth Center
Tue 08:36:17 PM 33.2319 -96.6833 251° West 283 326 8,400 -1,100 Descending Fort Worth Center
Tue 08:37:17 PM 33.2014 -96.7778 249° West 278 320 7,100 -1,059 Descending Fort Worth Center
Tue 08:38:16 PM 33.1578 -96.8403 230° Southwest 272 313 6,300 -1,150 Descending Fort Worth Center
Tue 08:39:17 PM 33.1081 -96.9200 233° Southwest 277 319 4,800 -1,357 Descending Fort Worth Center
Tue 08:39:40 PM 33.1000 -96.9500 252° West 248 285 4,400 -1,043 Descending Dallas / Fort Worth TRACON

Login

Don't have an account? Register now (free) for customized features, flight alerts, and more!